Rossburg, New York
Current Conditions -  °F | °C
As of 12:20 PM on Thursday 30 Oct 2014 (Local Time) from KDSV Reporting Station
Overcast Overcast  
Wind Chill: 41°   Ceiling: 2800
Heat Index: 45°   Visibility: 10mi
Dew Point: 35°   Wind: 8mph
Humidity: 68%   Direction: 330°NNW
Pressure: 30.08"   Gusts: NA
Location:  42.5°N, 78.07°W
Report Text: KDSV 301620Z AUTO 33007KT 10SM BKN028 OVC038 07/02 A3008 RMK AO2 T00720017
Loading
Personal Weather Stations






























Interactive Weather Map
Tropical Storm Tracking
New forecast layout! Learn more

10-Day Weather Forecast

Advertisements
Track Severe Weather on mobile